sensor_id;sensor_type;location;lat;lon;timestamp;P1;durP1;ratioP1;P2;durP2;ratioP2
4001;SDS011;2015;48.670;9.060;2023-09-07T00:01:06;5.80;;;5.40;;
4001;SDS011;2015;48.670;9.060;2023-09-07T00:03:38;6.50;;;5.97;;
4001;SDS011;2015;48.670;9.060;2023-09-07T00:06:13;7.20;;;6.50;;
4001;SDS011;2015;48.670;9.060;2023-09-07T00:08:44;6.55;;;5.95;;
4001;SDS011;2015;48.670;9.060;2023-09-07T00:11:16;6.27;;;5.77;;
4001;SDS011;2015;48.670;9.060;2023-09-07T00:13:48;6.50;;;6.00;;
4001;SDS011;2015;48.670;9.060;2023-09-07T00:16:21;5.77;;;5.47;;
4001;SDS011;2015;48.670;9.060;2023-09-07T00:18:53;6.10;;;5.60;;
4001;SDS011;2015;48.670;9.060;2023-09-07T00:21:25;6.10;;;5.60;;
4001;SDS011;2015;48.670;9.060;2023-09-07T00:23:56;6.90;;;6.20;;
4001;SDS011;2015;48.670;9.060;2023-09-07T00:26:28;6.30;;;5.87;;
4001;SDS011;2015;48.670;9.060;2023-09-07T00:29:00;7.10;;;6.50;;
4001;SDS011;2015;48.670;9.060;2023-09-07T00:31:31;7.23;;;6.63;;
4001;SDS011;2015;48.670;9.060;2023-09-07T00:34:04;7.83;;;7.13;;
4001;SDS011;2015;48.670;9.060;2023-09-07T00:36:36;6.00;;;5.40;;
4001;SDS011;2015;48.670;9.060;2023-09-07T00:39:07;7.87;;;6.40;;
4001;SDS011;2015;48.670;9.060;2023-09-07T00:41:39;7.67;;;6.97;;
4001;SDS011;2015;48.670;9.060;2023-09-07T00:44:11;6.60;;;5.80;;
4001;SDS011;2015;48.670;9.060;2023-09-07T00:46:43;7.70;;;7.20;;
4001;SDS011;2015;48.670;9.060;2023-09-07T00:49:15;6.57;;;6.07;;
4001;SDS011;2015;48.670;9.060;2023-09-07T00:51:47;6.90;;;6.30;;
4001;SDS011;2015;48.670;9.060;2023-09-07T00:54:19;7.40;;;6.80;;
4001;SDS011;2015;48.670;9.060;2023-09-07T00:56:51;8.13;;;6.57;;
4001;SDS011;2015;48.670;9.060;2023-09-07T00:59:22;6.40;;;6.00;;
4001;SDS011;2015;48.670;9.060;2023-09-07T01:01:54;7.83;;;7.13;;
4001;SDS011;2015;48.670;9.060;2023-09-07T01:04:26;6.63;;;6.13;;
4001;SDS011;2015;48.670;9.060;2023-09-07T01:07:08;7.80;;;7.10;;
4001;SDS011;2015;48.670;9.060;2023-09-07T01:09:47;7.03;;;6.43;;
4001;SDS011;2015;48.670;9.060;2023-09-07T01:12:22;7.60;;;7.00;;
4001;SDS011;2015;48.670;9.060;2023-09-07T01:14:54;7.00;;;6.50;;
4001;SDS011;2015;48.670;9.060;2023-09-07T01:17:26;8.40;;;6.90;;
4001;SDS011;2015;48.670;9.060;2023-09-07T01:20:00;8.47;;;6.90;;
4001;SDS011;2015;48.670;9.060;2023-09-07T01:22:41;6.40;;;5.43;;
4001;SDS011;2015;48.670;9.060;2023-09-07T01:25:13;7.03;;;6.57;;
4001;SDS011;2015;48.670;9.060;2023-09-07T01:27:45;6.90;;;6.20;;
4001;SDS011;2015;48.670;9.060;2023-09-07T01:30:17;9.27;;;7.03;;
4001;SDS011;2015;48.670;9.060;2023-09-07T01:32:49;6.67;;;6.03;;
4001;SDS011;2015;48.670;9.060;2023-09-07T01:35:21;6.53;;;5.90;;
4001;SDS011;2015;48.670;9.060;2023-09-07T01:37:55;6.83;;;6.10;;
4001;SDS011;2015;48.670;9.060;2023-09-07T01:40:27;7.00;;;6.50;;
4001;SDS011;2015;48.670;9.060;2023-09-07T01:42:59;7.40;;;6.17;;
4001;SDS011;2015;48.670;9.060;2023-09-07T01:45:31;7.10;;;6.70;;
4001;SDS011;2015;48.670;9.060;2023-09-07T01:48:03;8.23;;;7.60;;
4001;SDS011;2015;48.670;9.060;2023-09-07T01:50:36;6.70;;;6.03;;
4001;SDS011;2015;48.670;9.060;2023-09-07T01:53:08;7.80;;;6.97;;
4001;SDS011;2015;48.670;9.060;2023-09-07T01:55:40;6.90;;;6.40;;
4001;SDS011;2015;48.670;9.060;2023-09-07T01:58:11;9.10;;;6.33;;
4001;SDS011;2015;48.670;9.060;2023-09-07T02:00:43;12.60;;;7.07;;
4001;SDS011;2015;48.670;9.060;2023-09-07T02:03:15;7.23;;;6.10;;
4001;SDS011;2015;48.670;9.060;2023-09-07T02:05:47;6.83;;;6.10;;
4001;SDS011;2015;48.670;9.060;2023-09-07T02:08:19;6.57;;;6.07;;
4001;SDS011;2015;48.670;9.060;2023-09-07T02:10:51;6.67;;;5.23;;
4001;SDS011;2015;48.670;9.060;2023-09-07T02:13:23;6.43;;;6.03;;
4001;SDS011;2015;48.670;9.060;2023-09-07T02:15:55;8.10;;;7.50;;
4001;SDS011;2015;48.670;9.060;2023-09-07T02:18:26;6.13;;;5.53;;
4001;SDS011;2015;48.670;9.060;2023-09-07T02:21:02;7.00;;;6.30;;
4001;SDS011;2015;48.670;9.060;2023-09-07T02:23:34;6.77;;;6.27;;
4001;SDS011;2015;48.670;9.060;2023-09-07T02:26:07;7.17;;;6.37;;
4001;SDS011;2015;48.670;9.060;2023-09-07T02:28:39;7.17;;;6.47;;
4001;SDS011;2015;48.670;9.060;2023-09-07T02:31:12;11.10;;;7.83;;
4001;SDS011;2015;48.670;9.060;2023-09-07T02:33:44;6.03;;;5.43;;
4001;SDS011;2015;48.670;9.060;2023-09-07T02:36:15;7.40;;;6.80;;
4001;SDS011;2015;48.670;9.060;2023-09-07T02:38:47;7.37;;;6.80;;
4001;SDS011;2015;48.670;9.060;2023-09-07T02:41:19;6.57;;;5.97;;
4001;SDS011;2015;48.670;9.060;2023-09-07T02:43:51;7.90;;;7.30;;
4001;SDS011;2015;48.670;9.060;2023-09-07T02:46:22;7.50;;;6.63;;
4001;SDS011;2015;48.670;9.060;2023-09-07T02:48:54;8.53;;;7.67;;
4001;SDS011;2015;48.670;9.060;2023-09-07T02:51:28;7.83;;;7.13;;
4001;SDS011;2015;48.670;9.060;2023-09-07T02:54:01;7.70;;;6.97;;
4001;SDS011;2015;48.670;9.060;2023-09-07T02:56:33;8.43;;;7.77;;
4001;SDS011;2015;48.670;9.060;2023-09-07T02:59:05;11.53;;;7.40;;
4001;SDS011;2015;48.670;9.060;2023-09-07T03:01:38;7.07;;;6.50;;
4001;SDS011;2015;48.670;9.060;2023-09-07T03:04:10;8.13;;;7.43;;
4001;SDS011;2015;48.670;9.060;2023-09-07T03:06:42;10.77;;;7.00;;
4001;SDS011;2015;48.670;9.060;2023-09-07T03:09:15;7.60;;;6.90;;
4001;SDS011;2015;48.670;9.060;2023-09-07T03:11:47;6.70;;;6.10;;
4001;SDS011;2015;48.670;9.060;2023-09-07T03:14:18;9.13;;;8.23;;
4001;SDS011;2015;48.670;9.060;2023-09-07T03:16:50;5.90;;;5.50;;
4001;SDS011;2015;48.670;9.060;2023-09-07T03:19:22;9.53;;;6.50;;
4001;SDS011;2015;48.670;9.060;2023-09-07T03:21:53;8.20;;;6.80;;
4001;SDS011;2015;48.670;9.060;2023-09-07T03:24:25;11.17;;;8.37;;
4001;SDS011;2015;48.670;9.060;2023-09-07T03:26:58;7.27;;;6.57;;
4001;SDS011;2015;48.670;9.060;2023-09-07T03:29:30;7.00;;;6.40;;
4001;SDS011;2015;48.670;9.060;2023-09-07T03:32:02;6.40;;;6.00;;
4001;SDS011;2015;48.670;9.060;2023-09-07T03:34:34;6.37;;;5.87;;
4001;SDS011;2015;48.670;9.060;2023-09-07T03:37:05;7.22;;;6.35;;
4001;SDS011;2015;48.670;9.060;2023-09-07T03:39:38;7.50;;;6.83;;
4001;SDS011;2015;48.670;9.060;2023-09-07T03:42:09;7.97;;;7.17;;
4001;SDS011;2015;48.670;9.060;2023-09-07T03:44:41;7.00;;;6.40;;
4001;SDS011;2015;48.670;9.060;2023-09-07T03:47:13;6.10;;;5.60;;
4001;SDS011;2015;48.670;9.060;2023-09-07T03:49:46;7.03;;;6.40;;
4001;SDS011;2015;48.670;9.060;2023-09-07T03:52:18;6.83;;;5.90;;
4001;SDS011;2015;48.670;9.060;2023-09-07T03:54:50;7.37;;;5.53;;
4001;SDS011;2015;48.670;9.060;2023-09-07T03:57:24;7.07;;;6.47;;
4001;SDS011;2015;48.670;9.060;2023-09-07T03:59:56;7.30;;;6.40;;
4001;SDS011;2015;48.670;9.060;2023-09-07T04:02:28;7.00;;;6.57;;
4001;SDS011;2015;48.670;9.060;2023-09-07T04:05:00;6.67;;;6.20;;
4001;SDS011;2015;48.670;9.060;2023-09-07T04:07:34;8.00;;;7.13;;
4001;SDS011;2015;48.670;9.060;2023-09-07T04:10:06;7.83;;;7.03;;
4001;SDS011;2015;48.670;9.060;2023-09-07T04:12:38;6.93;;;6.33;;
4001;SDS011;2015;48.670;9.060;2023-09-07T04:15:10;7.23;;;6.73;;
4001;SDS011;2015;48.670;9.060;2023-09-07T04:17:41;6.53;;;6.00;;
4001;SDS011;2015;48.670;9.060;2023-09-07T04:20:13;6.30;;;5.80;;
4001;SDS011;2015;48.670;9.060;2023-09-07T04:22:45;6.73;;;6.23;;
4001;SDS011;2015;48.670;9.060;2023-09-07T04:25:17;7.90;;;7.07;;
4001;SDS011;2015;48.670;9.060;2023-09-07T04:27:49;7.60;;;6.90;;
4001;SDS011;2015;48.670;9.060;2023-09-07T04:30:20;7.03;;;6.53;;
4001;SDS011;2015;48.670;9.060;2023-09-07T04:32:52;15.10;;;6.90;;
4001;SDS011;2015;48.670;9.060;2023-09-07T04:35:30;6.60;;;6.10;;
4001;SDS011;2015;48.670;9.060;2023-09-07T04:38:04;7.20;;;6.80;;
4001;SDS011;2015;48.670;9.060;2023-09-07T04:40:36;8.47;;;7.77;;
4001;SDS011;2015;48.670;9.060;2023-09-07T04:43:08;7.23;;;6.63;;
4001;SDS011;2015;48.670;9.060;2023-09-07T04:45:46;8.10;;;7.60;;
4001;SDS011;2015;48.670;9.060;2023-09-07T04:48:18;9.13;;;8.53;;
4001;SDS011;2015;48.670;9.060;2023-09-07T04:50:57;8.03;;;7.23;;
4001;SDS011;2015;48.670;9.060;2023-09-07T04:53:33;12.27;;;8.90;;
4001;SDS011;2015;48.670;9.060;2023-09-07T04:56:09;9.60;;;6.97;;
4001;SDS011;2015;48.670;9.060;2023-09-07T04:58:41;7.77;;;7.17;;
4001;SDS011;2015;48.670;9.060;2023-09-07T05:01:12;7.00;;;6.40;;
4001;SDS011;2015;48.670;9.060;2023-09-07T05:03:44;8.23;;;7.53;;
4001;SDS011;2015;48.670;9.060;2023-09-07T05:06:16;8.37;;;7.67;;
4001;SDS011;2015;48.670;9.060;2023-09-07T05:08:48;8.80;;;8.00;;
4001;SDS011;2015;48.670;9.060;2023-09-07T05:11:20;6.97;;;6.33;;
4001;SDS011;2015;48.670;9.060;2023-09-07T05:13:52;7.77;;;7.20;;
4001;SDS011;2015;48.670;9.060;2023-09-07T05:16:23;8.00;;;7.30;;
4001;SDS011;2015;48.670;9.060;2023-09-07T05:18:55;7.90;;;7.30;;
4001;SDS011;2015;48.670;9.060;2023-09-07T05:21:27;7.50;;;6.90;;
4001;SDS011;2015;48.670;9.060;2023-09-07T05:23:59;7.93;;;7.33;;
4001;SDS011;2015;48.670;9.060;2023-09-07T05:26:30;7.90;;;7.20;;
4001;SDS011;2015;48.670;9.060;2023-09-07T05:29:02;9.00;;;8.10;;
4001;SDS011;2015;48.670;9.060;2023-09-07T05:31:34;7.27;;;6.67;;
4001;SDS011;2015;48.670;9.060;2023-09-07T05:34:06;10.40;;;7.87;;
4001;SDS011;2015;48.670;9.060;2023-09-07T05:36:38;7.20;;;6.70;;
4001;SDS011;2015;48.670;9.060;2023-09-07T05:39:10;7.50;;;6.97;;
4001;SDS011;2015;48.670;9.060;2023-09-07T05:41:41;8.30;;;7.60;;
4001;SDS011;2015;48.670;9.060;2023-09-07T05:44:13;13.10;;;7.70;;
4001;SDS011;2015;48.670;9.060;2023-09-07T05:46:45;8.73;;;8.03;;
4001;SDS011;2015;48.670;9.060;2023-09-07T05:49:17;9.53;;;8.57;;
4001;SDS011;2015;48.670;9.060;2023-09-07T05:51:49;10.77;;;9.70;;
4001;SDS011;2015;48.670;9.060;2023-09-07T05:54:20;8.80;;;8.00;;
4001;SDS011;2015;48.670;9.060;2023-09-07T05:56:52;8.87;;;8.00;;
4001;SDS011;2015;48.670;9.060;2023-09-07T05:59:24;9.17;;;8.30;;
4001;SDS011;2015;48.670;9.060;2023-09-07T06:01:56;9.23;;;8.30;;
4001;SDS011;2015;48.670;9.060;2023-09-07T06:04:27;8.57;;;7.97;;
4001;SDS011;2015;48.670;9.060;2023-09-07T06:06:59;8.10;;;7.23;;
4001;SDS011;2015;48.670;9.060;2023-09-07T06:09:31;7.77;;;7.07;;
4001;SDS011;2015;48.670;9.060;2023-09-07T06:12:03;10.13;;;9.13;;
4001;SDS011;2015;48.670;9.060;2023-09-07T06:14:35;12.50;;;9.03;;
4001;SDS011;2015;48.670;9.060;2023-09-07T06:17:07;14.43;;;9.90;;
4001;SDS011;2015;48.670;9.060;2023-09-07T06:19:39;12.13;;;10.60;;
4001;SDS011;2015;48.670;9.060;2023-09-07T06:22:11;11.47;;;10.30;;
4001;SDS011;2015;48.670;9.060;2023-09-07T06:24:43;11.83;;;10.67;;
4001;SDS011;2015;48.670;9.060;2023-09-07T06:27:15;13.88;;;12.50;;
4001;SDS011;2015;48.670;9.060;2023-09-07T06:29:46;12.40;;;9.70;;
4001;SDS011;2015;48.670;9.060;2023-09-07T06:32:18;14.50;;;10.27;;
4001;SDS011;2015;48.670;9.060;2023-09-07T06:34:50;11.93;;;10.17;;
4001;SDS011;2015;48.670;9.060;2023-09-07T06:37:22;14.80;;;11.60;;
4001;SDS011;2015;48.670;9.060;2023-09-07T06:39:55;12.10;;;10.80;;
4001;SDS011;2015;48.670;9.060;2023-09-07T06:42:27;12.10;;;9.70;;
4001;SDS011;2015;48.670;9.060;2023-09-07T06:44:59;13.90;;;11.50;;
4001;SDS011;2015;48.670;9.060;2023-09-07T06:47:31;14.70;;;11.97;;
4001;SDS011;2015;48.670;9.060;2023-09-07T06:50:03;11.60;;;9.93;;
4001;SDS011;2015;48.670;9.060;2023-09-07T06:52:36;15.03;;;10.57;;
4001;SDS011;2015;48.670;9.060;2023-09-07T06:55:08;14.07;;;10.43;;
4001;SDS011;2015;48.670;9.060;2023-09-07T06:57:40;10.53;;;9.20;;
4001;SDS011;2015;48.670;9.060;2023-09-07T07:00:12;18.00;;;10.17;;
4001;SDS011;2015;48.670;9.060;2023-09-07T07:02:44;11.10;;;9.90;;
4001;SDS011;2015;48.670;9.060;2023-09-07T07:05:16;14.13;;;11.00;;
4001;SDS011;2015;48.670;9.060;2023-09-07T07:07:48;12.77;;;9.97;;
4001;SDS011;2015;48.670;9.060;2023-09-07T07:10:19;13.67;;;9.83;;
4001;SDS011;2015;48.670;9.060;2023-09-07T07:12:51;11.17;;;10.23;;
4001;SDS011;2015;48.670;9.060;2023-09-07T07:15:23;11.77;;;9.90;;
4001;SDS011;2015;48.670;9.060;2023-09-07T07:17:54;10.00;;;9.10;;
4001;SDS011;2015;48.670;9.060;2023-09-07T07:20:26;11.00;;;9.87;;
4001;SDS011;2015;48.670;9.060;2023-09-07T07:22:58;12.20;;;9.90;;
4001;SDS011;2015;48.670;9.060;2023-09-07T07:25:31;14.17;;;9.97;;
4001;SDS011;2015;48.670;9.060;2023-09-07T07:28:04;11.20;;;10.20;;
4001;SDS011;2015;48.670;9.060;2023-09-07T07:30:38;10.03;;;9.13;;
4001;SDS011;2015;48.670;9.060;2023-09-07T07:33:11;12.37;;;11.03;;
4001;SDS011;2015;48.670;9.060;2023-09-07T07:35:43;10.90;;;10.00;;
4001;SDS011;2015;48.670;9.060;2023-09-07T07:38:15;9.67;;;8.83;;
4001;SDS011;2015;48.670;9.060;2023-09-07T07:40:47;10.20;;;9.30;;
4001;SDS011;2015;48.670;9.060;2023-09-07T07:43:18;10.60;;;9.60;;
4001;SDS011;2015;48.670;9.060;2023-09-07T07:45:51;10.10;;;9.10;;
4001;SDS011;2015;48.670;9.060;2023-09-07T07:48:24;13.70;;;10.03;;
4001;SDS011;2015;48.670;9.060;2023-09-07T07:50:56;10.77;;;9.87;;
4001;SDS011;2015;48.670;9.060;2023-09-07T07:53:28;11.77;;;10.47;;
4001;SDS011;2015;48.670;9.060;2023-09-07T07:56:00;15.30;;;10.90;;
4001;SDS011;2015;48.670;9.060;2023-09-07T07:58:32;10.53;;;9.63;;
4001;SDS011;2015;48.670;9.060;2023-09-07T08:01:10;11.30;;;10.40;;
4001;SDS011;2015;48.670;9.060;2023-09-07T08:03:47;11.73;;;10.57;;
4001;SDS011;2015;48.670;9.060;2023-09-07T08:06:19;11.23;;;10.10;;
4001;SDS011;2015;48.670;9.060;2023-09-07T08:08:51;11.37;;;10.10;;
4001;SDS011;2015;48.670;9.060;2023-09-07T08:11:23;14.52;;;10.23;;
4001;SDS011;2015;48.670;9.060;2023-09-07T08:13:55;11.30;;;10.40;;
4001;SDS011;2015;48.670;9.060;2023-09-07T08:16:27;10.77;;;9.97;;
4001;SDS011;2015;48.670;9.060;2023-09-07T08:18:59;11.37;;;10.47;;
4001;SDS011;2015;48.670;9.060;2023-09-07T08:21:30;12.70;;;10.50;;
4001;SDS011;2015;48.670;9.060;2023-09-07T08:24:02;12.37;;;9.73;;
4001;SDS011;2015;48.670;9.060;2023-09-07T08:26:37;9.67;;;8.80;;
4001;SDS011;2015;48.670;9.060;2023-09-07T08:29:10;11.43;;;10.47;;
4001;SDS011;2015;48.670;9.060;2023-09-07T08:31:43;10.87;;;9.80;;
4001;SDS011;2015;48.670;9.060;2023-09-07T08:34:16;11.57;;;10.40;;
4001;SDS011;2015;48.670;9.060;2023-09-07T08:36:50;11.10;;;10.03;;
4001;SDS011;2015;48.670;9.060;2023-09-07T08:39:24;10.60;;;9.60;;
4001;SDS011;2015;48.670;9.060;2023-09-07T08:41:55;10.73;;;9.80;;
4001;SDS011;2015;48.670;9.060;2023-09-07T08:44:33;10.90;;;9.80;;
4001;SDS011;2015;48.670;9.060;2023-09-07T08:47:06;11.40;;;10.30;;
4001;SDS011;2015;48.670;9.060;2023-09-07T08:49:39;13.60;;;10.20;;
4001;SDS011;2015;48.670;9.060;2023-09-07T08:52:12;12.03;;;11.03;;
4001;SDS011;2015;48.670;9.060;2023-09-07T08:54:46;10.67;;;9.57;;
4001;SDS011;2015;48.670;9.060;2023-09-07T08:57:19;11.43;;;10.53;;
4001;SDS011;2015;48.670;9.060;2023-09-07T08:59:53;11.93;;;10.73;;
4001;SDS011;2015;48.670;9.060;2023-09-07T09:02:25;20.03;;;18.47;;
4001;SDS011;2015;48.670;9.060;2023-09-07T09:04:57;12.07;;;11.10;;
4001;SDS011;2015;48.670;9.060;2023-09-07T09:07:29;9.57;;;8.77;;
4001;SDS011;2015;48.670;9.060;2023-09-07T09:10:07;14.77;;;10.43;;
4001;SDS011;2015;48.670;9.060;2023-09-07T09:12:46;10.13;;;9.23;;
4001;SDS011;2015;48.670;9.060;2023-09-07T09:15:23;11.67;;;10.67;;
4001;SDS011;2015;48.670;9.060;2023-09-07T09:17:55;11.63;;;10.67;;
4001;SDS011;2015;48.670;9.060;2023-09-07T09:20:27;11.43;;;9.80;;
4001;SDS011;2015;48.670;9.060;2023-09-07T09:22:59;10.27;;;9.27;;
4001;SDS011;2015;48.670;9.060;2023-09-07T09:25:35;9.33;;;8.57;;
4001;SDS011;2015;48.670;9.060;2023-09-07T09:28:08;9.87;;;8.97;;
4001;SDS011;2015;48.670;9.060;2023-09-07T09:30:41;8.45;;;7.68;;
4001;SDS011;2015;48.670;9.060;2023-09-07T09:33:16;9.43;;;8.45;;
4001;SDS011;2015;48.670;9.060;2023-09-07T09:35:52;8.80;;;8.18;;
4001;SDS011;2015;48.670;9.060;2023-09-07T09:38:25;9.32;;;8.63;;
4001;SDS011;2015;48.670;9.060;2023-09-07T09:40:57;11.40;;;9.95;;
4001;SDS011;2015;48.670;9.060;2023-09-07T09:43:29;8.63;;;8.13;;
4001;SDS011;2015;48.670;9.060;2023-09-07T09:46:01;10.30;;;9.65;;
4001;SDS011;2015;48.670;9.060;2023-09-07T09:48:38;8.48;;;7.97;;
4001;SDS011;2015;48.670;9.060;2023-09-07T09:51:13;8.68;;;7.82;;
4001;SDS011;2015;48.670;9.060;2023-09-07T09:53:45;8.40;;;7.90;;
4001;SDS011;2015;48.670;9.060;2023-09-07T09:56:19;7.85;;;7.10;;
4001;SDS011;2015;48.670;9.060;2023-09-07T09:58:51;8.60;;;8.10;;
4001;SDS011;2015;48.670;9.060;2023-09-07T10:01:24;7.68;;;7.18;;
4001;SDS011;2015;48.670;9.060;2023-09-07T10:03:56;9.65;;;8.65;;
4001;SDS011;2015;48.670;9.060;2023-09-07T10:06:28;8.38;;;7.85;;
4001;SDS011;2015;48.670;9.060;2023-09-07T10:09:04;8.70;;;7.93;;
4001;SDS011;2015;48.670;9.060;2023-09-07T10:11:42;7.78;;;7.18;;
4001;SDS011;2015;48.670;9.060;2023-09-07T10:14:13;10.90;;;9.20;;
4001;SDS011;2015;48.670;9.060;2023-09-07T10:16:46;9.80;;;9.00;;
4001;SDS011;2015;48.670;9.060;2023-09-07T10:19:20;9.00;;;8.40;;
4001;SDS011;2015;48.670;9.060;2023-09-07T10:21:54;9.10;;;8.48;;
4001;SDS011;2015;48.670;9.060;2023-09-07T10:24:27;8.45;;;7.88;;
4001;SDS011;2015;48.670;9.060;2023-09-07T10:27:08;10.82;;;9.95;;
4001;SDS011;2015;48.670;9.060;2023-09-07T10:29:46;8.90;;;8.30;;
4001;SDS011;2015;48.670;9.060;2023-09-07T10:32:37;9.43;;;8.85;;
4001;SDS011;2015;48.670;9.060;2023-09-07T10:35:15;9.07;;;8.43;;
4001;SDS011;2015;48.670;9.060;2023-09-07T10:37:49;9.15;;;8.55;;
4001;SDS011;2015;48.670;9.060;2023-09-07T10:40:21;10.10;;;9.40;;
4001;SDS011;2015;48.670;9.060;2023-09-07T10:43:02;9.75;;;9.05;;
4001;SDS011;2015;48.670;9.060;2023-09-07T10:45:35;9.02;;;8.27;;
4001;SDS011;2015;48.670;9.060;2023-09-07T10:48:07;9.05;;;8.43;;
4001;SDS011;2015;48.670;9.060;2023-09-07T10:50:46;7.97;;;7.47;;
4001;SDS011;2015;48.670;9.060;2023-09-07T10:53:25;8.90;;;8.30;;
4001;SDS011;2015;48.670;9.060;2023-09-07T10:55:59;7.78;;;7.35;;
4001;SDS011;2015;48.670;9.060;2023-09-07T10:58:35;9.82;;;8.77;;
4001;SDS011;2015;48.670;9.060;2023-09-07T11:01:10;8.60;;;8.13;;
4001;SDS011;2015;48.670;9.060;2023-09-07T11:03:46;9.30;;;8.68;;
4001;SDS011;2015;48.670;9.060;2023-09-07T11:06:18;8.90;;;8.23;;
4001;SDS011;2015;48.670;9.060;2023-09-07T11:08:58;10.57;;;9.73;;
4001;SDS011;2015;48.670;9.060;2023-09-07T11:11:31;8.43;;;7.82;;
4001;SDS011;2015;48.670;9.060;2023-09-07T11:14:06;9.13;;;8.52;;
4001;SDS011;2015;48.670;9.060;2023-09-07T11:16:39;9.73;;;9.15;;
4001;SDS011;2015;48.670;9.060;2023-09-07T11:19:12;9.32;;;8.60;;
4001;SDS011;2015;48.670;9.060;2023-09-07T11:21:46;9.90;;;8.90;;
4001;SDS011;2015;48.670;9.060;2023-09-07T11:24:18;9.20;;;8.45;;
4001;SDS011;2015;48.670;9.060;2023-09-07T11:26:49;10.25;;;9.55;;
4001;SDS011;2015;48.670;9.060;2023-09-07T11:29:22;9.43;;;8.73;;
4001;SDS011;2015;48.670;9.060;2023-09-07T11:31:54;10.50;;;9.70;;
4001;SDS011;2015;48.670;9.060;2023-09-07T11:34:46;10.18;;;9.43;;
4001;SDS011;2015;48.670;9.060;2023-09-07T11:37:24;9.30;;;8.73;;
4001;SDS011;2015;48.670;9.060;2023-09-07T11:39:57;17.85;;;10.13;;
4001;SDS011;2015;48.670;9.060;2023-09-07T11:42:28;9.70;;;8.98;;
4001;SDS011;2015;48.670;9.060;2023-09-07T11:45:00;10.88;;;10.07;;
4001;SDS011;2015;48.670;9.060;2023-09-07T11:47:32;10.43;;;9.63;;
4001;SDS011;2015;48.670;9.060;2023-09-07T11:50:06;11.00;;;10.20;;
4001;SDS011;2015;48.670;9.060;2023-09-07T11:52:37;9.63;;;8.73;;
4001;SDS011;2015;48.670;9.060;2023-09-07T11:55:09;10.73;;;9.77;;
4001;SDS011;2015;48.670;9.060;2023-09-07T11:57:41;12.47;;;11.27;;
4001;SDS011;2015;48.670;9.060;2023-09-07T12:00:14;10.60;;;9.87;;
4001;SDS011;2015;48.670;9.060;2023-09-07T12:02:46;11.73;;;10.60;;
4001;SDS011;2015;48.670;9.060;2023-09-07T12:05:18;11.80;;;10.90;;
4001;SDS011;2015;48.670;9.060;2023-09-07T12:07:50;10.27;;;9.37;;
4001;SDS011;2015;48.670;9.060;2023-09-07T12:10:22;10.53;;;9.73;;
4001;SDS011;2015;48.670;9.060;2023-09-07T12:12:54;10.50;;;9.60;;
4001;SDS011;2015;48.670;9.060;2023-09-07T12:15:26;11.93;;;10.90;;
4001;SDS011;2015;48.670;9.060;2023-09-07T12:17:58;11.53;;;10.63;;
4001;SDS011;2015;48.670;9.060;2023-09-07T12:20:30;9.20;;;8.43;;
4001;SDS011;2015;48.670;9.060;2023-09-07T12:23:02;12.17;;;11.17;;
4001;SDS011;2015;48.670;9.060;2023-09-07T12:25:34;9.67;;;8.90;;
4001;SDS011;2015;48.670;9.060;2023-09-07T12:28:06;10.07;;;9.30;;
4001;SDS011;2015;48.670;9.060;2023-09-07T12:30:37;10.67;;;9.87;;
4001;SDS011;2015;48.670;9.060;2023-09-07T12:33:09;10.97;;;9.97;;
4001;SDS011;2015;48.670;9.060;2023-09-07T12:35:41;8.97;;;8.17;;
4001;SDS011;2015;48.670;9.060;2023-09-07T12:38:13;10.43;;;9.57;;
4001;SDS011;2015;48.670;9.060;2023-09-07T12:40:48;10.63;;;9.60;;
4001;SDS011;2015;48.670;9.060;2023-09-07T12:43:20;10.77;;;9.90;;
4001;SDS011;2015;48.670;9.060;2023-09-07T12:45:52;10.70;;;9.83;;
4001;SDS011;2015;48.670;9.060;2023-09-07T12:48:24;12.10;;;10.00;;
4001;SDS011;2015;48.670;9.060;2023-09-07T12:50:55;8.73;;;8.17;;
4001;SDS011;2015;48.670;9.060;2023-09-07T12:53:27;9.63;;;8.83;;
4001;SDS011;2015;48.670;9.060;2023-09-07T12:55:59;9.70;;;9.00;;
4001;SDS011;2015;48.670;9.060;2023-09-07T12:58:33;9.80;;;9.20;;
4001;SDS011;2015;48.670;9.060;2023-09-07T13:01:04;9.57;;;8.93;;
4001;SDS011;2015;48.670;9.060;2023-09-07T13:03:39;8.20;;;7.40;;
4001;SDS011;2015;48.670;9.060;2023-09-07T13:06:11;9.23;;;8.57;;
4001;SDS011;2015;48.670;9.060;2023-09-07T13:08:43;8.33;;;7.83;;
4001;SDS011;2015;48.670;9.060;2023-09-07T13:11:16;11.40;;;8.43;;
4001;SDS011;2015;48.670;9.060;2023-09-07T13:13:47;8.97;;;8.10;;
4001;SDS011;2015;48.670;9.060;2023-09-07T13:16:19;8.30;;;7.50;;
4001;SDS011;2015;48.670;9.060;2023-09-07T13:18:51;9.50;;;8.70;;
4001;SDS011;2015;48.670;9.060;2023-09-07T13:21:23;8.33;;;7.80;;
4001;SDS011;2015;48.670;9.060;2023-09-07T13:23:55;9.17;;;8.07;;
4001;SDS011;2015;48.670;9.060;2023-09-07T13:26:26;7.53;;;7.03;;
4001;SDS011;2015;48.670;9.060;2023-09-07T13:28:58;7.67;;;7.13;;
4001;SDS011;2015;48.670;9.060;2023-09-07T13:31:30;8.50;;;7.77;;
4001;SDS011;2015;48.670;9.060;2023-09-07T13:34:02;8.07;;;7.47;;
4001;SDS011;2015;48.670;9.060;2023-09-07T13:36:34;9.73;;;9.00;;
4001;SDS011;2015;48.670;9.060;2023-09-07T13:39:06;9.20;;;8.50;;
4001;SDS011;2015;48.670;9.060;2023-09-07T13:41:38;9.50;;;8.70;;
4001;SDS011;2015;48.670;9.060;2023-09-07T13:44:11;9.30;;;8.60;;
4001;SDS011;2015;48.670;9.060;2023-09-07T13:46:45;9.00;;;8.37;;
4001;SDS011;2015;48.670;9.060;2023-09-07T13:49:17;9.17;;;8.57;;
4001;SDS011;2015;48.670;9.060;2023-09-07T13:51:48;10.20;;;8.10;;
4001;SDS011;2015;48.670;9.060;2023-09-07T13:54:21;9.10;;;8.40;;
4001;SDS011;2015;48.670;9.060;2023-09-07T13:56:54;8.23;;;7.63;;
4001;SDS011;2015;48.670;9.060;2023-09-07T13:59:25;9.00;;;8.40;;
4001;SDS011;2015;48.670;9.060;2023-09-07T14:02:00;9.33;;;8.53;;
4001;SDS011;2015;48.670;9.060;2023-09-07T14:04:32;10.60;;;9.70;;
4001;SDS011;2015;48.670;9.060;2023-09-07T14:07:04;9.87;;;9.17;;
4001;SDS011;2015;48.670;9.060;2023-09-07T14:09:35;8.80;;;8.03;;
4001;SDS011;2015;48.670;9.060;2023-09-07T14:12:07;10.00;;;9.30;;
4001;SDS011;2015;48.670;9.060;2023-09-07T14:14:39;9.57;;;8.73;;
4001;SDS011;2015;48.670;9.060;2023-09-07T14:17:12;9.23;;;8.63;;
4001;SDS011;2015;48.670;9.060;2023-09-07T14:19:43;8.17;;;7.57;;
4001;SDS011;2015;48.670;9.060;2023-09-07T14:22:16;9.30;;;8.43;;
4001;SDS011;2015;48.670;9.060;2023-09-07T14:24:48;9.17;;;8.47;;
4001;SDS011;2015;48.670;9.060;2023-09-07T14:27:20;9.47;;;8.60;;
4001;SDS011;2015;48.670;9.060;2023-09-07T14:29:52;9.07;;;8.50;;
4001;SDS011;2015;48.670;9.060;2023-09-07T14:32:24;9.03;;;8.33;;
4001;SDS011;2015;48.670;9.060;2023-09-07T14:34:56;9.77;;;8.97;;
4001;SDS011;2015;48.670;9.060;2023-09-07T14:37:27;9.60;;;8.70;;
4001;SDS011;2015;48.670;9.060;2023-09-07T14:39:59;8.60;;;7.90;;
4001;SDS011;2015;48.670;9.060;2023-09-07T14:42:31;9.23;;;8.47;;
4001;SDS011;2015;48.670;9.060;2023-09-07T14:45:03;9.30;;;8.70;;
4001;SDS011;2015;48.670;9.060;2023-09-07T14:47:35;8.70;;;8.07;;
4001;SDS011;2015;48.670;9.060;2023-09-07T14:50:07;8.70;;;7.90;;
4001;SDS011;2015;48.670;9.060;2023-09-07T14:52:39;8.47;;;7.77;;
4001;SDS011;2015;48.670;9.060;2023-09-07T14:55:13;8.53;;;7.97;;
4001;SDS011;2015;48.670;9.060;2023-09-07T14:57:48;8.67;;;7.97;;
4001;SDS011;2015;48.670;9.060;2023-09-07T15:00:20;7.93;;;7.43;;
4001;SDS011;2015;48.670;9.060;2023-09-07T15:02:53;8.57;;;7.97;;
4001;SDS011;2015;48.670;9.060;2023-09-07T15:05:25;8.30;;;7.60;;
4001;SDS011;2015;48.670;9.060;2023-09-07T15:07:57;7.97;;;7.40;;
4001;SDS011;2015;48.670;9.060;2023-09-07T15:10:29;9.10;;;8.30;;
4001;SDS011;2015;48.670;9.060;2023-09-07T15:13:01;10.10;;;9.20;;
4001;SDS011;2015;48.670;9.060;2023-09-07T15:15:38;14.33;;;7.40;;
4001;SDS011;2015;48.670;9.060;2023-09-07T15:18:11;8.37;;;7.67;;
4001;SDS011;2015;48.670;9.060;2023-09-07T15:20:43;7.10;;;6.50;;
4001;SDS011;2015;48.670;9.060;2023-09-07T15:23:14;7.20;;;6.70;;
4001;SDS011;2015;48.670;9.060;2023-09-07T15:25:46;7.60;;;6.90;;
4001;SDS011;2015;48.670;9.060;2023-09-07T15:28:18;6.80;;;6.40;;
4001;SDS011;2015;48.670;9.060;2023-09-07T15:30:50;7.23;;;6.73;;
4001;SDS011;2015;48.670;9.060;2023-09-07T15:33:22;6.93;;;6.53;;
4001;SDS011;2015;48.670;9.060;2023-09-07T15:35:54;6.77;;;6.37;;
4001;SDS011;2015;48.670;9.060;2023-09-07T15:38:25;7.93;;;7.13;;
4001;SDS011;2015;48.670;9.060;2023-09-07T15:40:59;7.43;;;6.93;;
4001;SDS011;2015;48.670;9.060;2023-09-07T15:43:35;7.37;;;6.90;;